sensor_id;sensor_type;location;lat;lon;timestamp;P1;durP1;ratioP1;P2;durP2;ratioP2
16393;SDS011;8306;51.128;4.476;2023-02-26T00:00:42;8.33;;;4.00;;
16393;SDS011;8306;51.128;4.476;2023-02-26T00:03:08;8.57;;;4.20;;
16393;SDS011;8306;51.128;4.476;2023-02-26T00:05:35;8.10;;;4.17;;
16393;SDS011;8306;51.128;4.476;2023-02-26T00:08:01;8.17;;;4.03;;
16393;SDS011;8306;51.128;4.476;2023-02-26T00:10:27;7.17;;;4.30;;
16393;SDS011;8306;51.128;4.476;2023-02-26T00:12:54;10.40;;;4.50;;
16393;SDS011;8306;51.128;4.476;2023-02-26T00:15:20;7.63;;;3.73;;
16393;SDS011;8306;51.128;4.476;2023-02-26T00:18:03;8.07;;;3.90;;
16393;SDS011;8306;51.128;4.476;2023-02-26T00:20:32;6.63;;;4.30;;
16393;SDS011;8306;51.128;4.476;2023-02-26T00:22:58;8.23;;;4.03;;
16393;SDS011;8306;51.128;4.476;2023-02-26T00:25:24;10.97;;;3.83;;
16393;SDS011;8306;51.128;4.476;2023-02-26T00:27:51;5.27;;;3.33;;
16393;SDS011;8306;51.128;4.476;2023-02-26T00:30:18;7.73;;;3.80;;
16393;SDS011;8306;51.128;4.476;2023-02-26T00:32:44;6.77;;;3.43;;
16393;SDS011;8306;51.128;4.476;2023-02-26T00:35:12;8.13;;;3.70;;
16393;SDS011;8306;51.128;4.476;2023-02-26T00:43:20;8.43;;;3.80;;
16393;SDS011;8306;51.128;4.476;2023-02-26T00:51:11;8.07;;;3.77;;
16393;SDS011;8306;51.128;4.476;2023-02-26T00:53:56;9.37;;;5.53;;
16393;SDS011;8306;51.128;4.476;2023-02-26T00:56:24;6.50;;;2.73;;
16393;SDS011;8306;51.128;4.476;2023-02-26T00:58:51;6.67;;;3.20;;
16393;SDS011;8306;51.128;4.476;2023-02-26T01:01:17;8.87;;;3.53;;
16393;SDS011;8306;51.128;4.476;2023-02-26T01:03:44;5.17;;;2.80;;
16393;SDS011;8306;51.128;4.476;2023-02-26T01:06:12;10.50;;;3.43;;
16393;SDS011;8306;51.128;4.476;2023-02-26T01:08:39;3.53;;;2.67;;
16393;SDS011;8306;51.128;4.476;2023-02-26T01:11:03;6.13;;;2.97;;
16393;SDS011;8306;51.128;4.476;2023-02-26T01:13:29;4.30;;;2.83;;
16393;SDS011;8306;51.128;4.476;2023-02-26T01:15:58;3.87;;;2.47;;
16393;SDS011;8306;51.128;4.476;2023-02-26T01:18:27;5.50;;;2.63;;
16393;SDS011;8306;51.128;4.476;2023-02-26T01:20:53;5.00;;;2.40;;
16393;SDS011;8306;51.128;4.476;2023-02-26T01:23:24;4.37;;;2.90;;
16393;SDS011;8306;51.128;4.476;2023-02-26T01:25:52;7.67;;;2.77;;
16393;SDS011;8306;51.128;4.476;2023-02-26T01:28:19;6.13;;;2.50;;
16393;SDS011;8306;51.128;4.476;2023-02-26T01:30:45;8.70;;;3.30;;
16393;SDS011;8306;51.128;4.476;2023-02-26T01:35:46;6.20;;;2.07;;
16393;SDS011;8306;51.128;4.476;2023-02-26T01:46:38;5.20;;;2.83;;
16393;SDS011;8306;51.128;4.476;2023-02-26T01:49:02;3.83;;;2.37;;
16393;SDS011;8306;51.128;4.476;2023-02-26T01:51:43;8.10;;;2.70;;
16393;SDS011;8306;51.128;4.476;2023-02-26T01:54:17;3.83;;;2.30;;
16393;SDS011;8306;51.128;4.476;2023-02-26T01:56:43;3.73;;;2.13;;
16393;SDS011;8306;51.128;4.476;2023-02-26T01:59:10;3.67;;;2.13;;
16393;SDS011;8306;51.128;4.476;2023-02-26T02:01:36;5.93;;;2.70;;
16393;SDS011;8306;51.128;4.476;2023-02-26T02:04:03;6.00;;;2.20;;
16393;SDS011;8306;51.128;4.476;2023-02-26T02:06:28;5.83;;;2.57;;
16393;SDS011;8306;51.128;4.476;2023-02-26T02:08:55;5.50;;;2.63;;
16393;SDS011;8306;51.128;4.476;2023-02-26T02:11:21;4.43;;;2.20;;
16393;SDS011;8306;51.128;4.476;2023-02-26T02:14:05;6.43;;;2.13;;
16393;SDS011;8306;51.128;4.476;2023-02-26T02:19:28;8.73;;;2.70;;
16393;SDS011;8306;51.128;4.476;2023-02-26T02:22:11;4.67;;;2.30;;
16393;SDS011;8306;51.128;4.476;2023-02-26T02:30:30;5.23;;;2.43;;
16393;SDS011;8306;51.128;4.476;2023-02-26T02:32:57;4.83;;;1.87;;
16393;SDS011;8306;51.128;4.476;2023-02-26T02:35:40;4.27;;;1.93;;
16393;SDS011;8306;51.128;4.476;2023-02-26T02:38:11;4.80;;;2.03;;
16393;SDS011;8306;51.128;4.476;2023-02-26T02:40:39;3.70;;;1.90;;
16393;SDS011;8306;51.128;4.476;2023-02-26T02:43:05;6.37;;;1.60;;
16393;SDS011;8306;51.128;4.476;2023-02-26T02:48:00;4.27;;;2.03;;
16393;SDS011;8306;51.128;4.476;2023-02-26T02:50:36;4.67;;;1.73;;
16393;SDS011;8306;51.128;4.476;2023-02-26T02:53:02;8.80;;;2.30;;
16393;SDS011;8306;51.128;4.476;2023-02-26T02:55:31;5.40;;;2.07;;
16393;SDS011;8306;51.128;4.476;2023-02-26T02:57:57;4.87;;;1.80;;
16393;SDS011;8306;51.128;4.476;2023-02-26T03:00:26;3.63;;;2.03;;
16393;SDS011;8306;51.128;4.476;2023-02-26T03:03:04;6.33;;;2.37;;
16393;SDS011;8306;51.128;4.476;2023-02-26T03:05:27;3.70;;;2.00;;
16393;SDS011;8306;51.128;4.476;2023-02-26T03:07:55;7.23;;;2.13;;
16393;SDS011;8306;51.128;4.476;2023-02-26T03:10:21;4.03;;;2.10;;
16393;SDS011;8306;51.128;4.476;2023-02-26T03:12:47;5.57;;;2.03;;
16393;SDS011;8306;51.128;4.476;2023-02-26T03:15:13;4.27;;;1.97;;
16393;SDS011;8306;51.128;4.476;2023-02-26T03:20:33;5.63;;;1.70;;
16393;SDS011;8306;51.128;4.476;2023-02-26T03:25:29;6.43;;;2.40;;
16393;SDS011;8306;51.128;4.476;2023-02-26T03:28:08;4.03;;;1.90;;
16393;SDS011;8306;51.128;4.476;2023-02-26T03:38:28;4.57;;;1.60;;
16393;SDS011;8306;51.128;4.476;2023-02-26T03:40:48;9.77;;;2.27;;
16393;SDS011;8306;51.128;4.476;2023-02-26T03:43:26;2.73;;;1.57;;
16393;SDS011;8306;51.128;4.476;2023-02-26T03:45:49;3.93;;;1.77;;
16393;SDS011;8306;51.128;4.476;2023-02-26T03:48:17;2.80;;;1.20;;
16393;SDS011;8306;51.128;4.476;2023-02-26T03:50:45;5.10;;;1.83;;
16393;SDS011;8306;51.128;4.476;2023-02-26T03:53:11;4.97;;;1.47;;
16393;SDS011;8306;51.128;4.476;2023-02-26T03:55:47;4.80;;;1.70;;
16393;SDS011;8306;51.128;4.476;2023-02-26T03:58:20;5.33;;;1.67;;
16393;SDS011;8306;51.128;4.476;2023-02-26T04:00:49;3.80;;;1.13;;
16393;SDS011;8306;51.128;4.476;2023-02-26T04:03:15;5.70;;;1.40;;
16393;SDS011;8306;51.128;4.476;2023-02-26T04:05:41;3.47;;;1.20;;
16393;SDS011;8306;51.128;4.476;2023-02-26T04:08:06;4.57;;;1.23;;
16393;SDS011;8306;51.128;4.476;2023-02-26T04:10:35;4.43;;;1.13;;
16393;SDS011;8306;51.128;4.476;2023-02-26T04:13:02;2.87;;;1.17;;
16393;SDS011;8306;51.128;4.476;2023-02-26T04:15:28;4.77;;;1.10;;
16393;SDS011;8306;51.128;4.476;2023-02-26T04:17:55;3.30;;;1.10;;
16393;SDS011;8306;51.128;4.476;2023-02-26T04:20:21;4.47;;;1.40;;
16393;SDS011;8306;51.128;4.476;2023-02-26T04:22:48;3.17;;;1.40;;
16393;SDS011;8306;51.128;4.476;2023-02-26T04:25:14;3.60;;;1.23;;
16393;SDS011;8306;51.128;4.476;2023-02-26T04:27:40;2.50;;;1.10;;
16393;SDS011;8306;51.128;4.476;2023-02-26T04:30:07;4.67;;;1.83;;
16393;SDS011;8306;51.128;4.476;2023-02-26T04:32:34;4.63;;;1.73;;
16393;SDS011;8306;51.128;4.476;2023-02-26T04:35:00;4.63;;;1.13;;
16393;SDS011;8306;51.128;4.476;2023-02-26T04:37:27;5.13;;;1.27;;
16393;SDS011;8306;51.128;4.476;2023-02-26T04:39:53;3.70;;;1.33;;
16393;SDS011;8306;51.128;4.476;2023-02-26T04:42:20;3.93;;;1.60;;
16393;SDS011;8306;51.128;4.476;2023-02-26T04:44:46;3.43;;;1.47;;
16393;SDS011;8306;51.128;4.476;2023-02-26T04:47:13;5.00;;;1.30;;
16393;SDS011;8306;51.128;4.476;2023-02-26T04:49:39;3.13;;;1.40;;
16393;SDS011;8306;51.128;4.476;2023-02-26T04:52:05;3.27;;;1.20;;
16393;SDS011;8306;51.128;4.476;2023-02-26T04:54:32;3.77;;;1.40;;
16393;SDS011;8306;51.128;4.476;2023-02-26T04:56:59;5.23;;;2.10;;
16393;SDS011;8306;51.128;4.476;2023-02-26T04:59:25;4.03;;;1.30;;
16393;SDS011;8306;51.128;4.476;2023-02-26T05:01:52;4.40;;;1.40;;
16393;SDS011;8306;51.128;4.476;2023-02-26T05:04:18;5.23;;;1.07;;
16393;SDS011;8306;51.128;4.476;2023-02-26T05:06:45;4.37;;;1.20;;
16393;SDS011;8306;51.128;4.476;2023-02-26T05:09:11;2.90;;;1.17;;
16393;SDS011;8306;51.128;4.476;2023-02-26T05:11:38;5.40;;;1.10;;
16393;SDS011;8306;51.128;4.476;2023-02-26T05:14:04;5.80;;;1.20;;
16393;SDS011;8306;51.128;4.476;2023-02-26T05:16:31;4.03;;;1.10;;
16393;SDS011;8306;51.128;4.476;2023-02-26T05:18:57;4.07;;;1.10;;
16393;SDS011;8306;51.128;4.476;2023-02-26T05:21:24;4.23;;;1.30;;
16393;SDS011;8306;51.128;4.476;2023-02-26T05:23:50;6.83;;;1.30;;
16393;SDS011;8306;51.128;4.476;2023-02-26T05:26:17;3.63;;;0.80;;
16393;SDS011;8306;51.128;4.476;2023-02-26T05:28:43;3.37;;;0.90;;
16393;SDS011;8306;51.128;4.476;2023-02-26T05:31:10;2.93;;;1.07;;
16393;SDS011;8306;51.128;4.476;2023-02-26T05:33:36;2.53;;;0.93;;
16393;SDS011;8306;51.128;4.476;2023-02-26T05:36:03;4.13;;;1.67;;
16393;SDS011;8306;51.128;4.476;2023-02-26T05:38:29;6.47;;;1.10;;
16393;SDS011;8306;51.128;4.476;2023-02-26T05:40:56;3.10;;;1.20;;
16393;SDS011;8306;51.128;4.476;2023-02-26T05:43:22;5.50;;;1.20;;
16393;SDS011;8306;51.128;4.476;2023-02-26T05:45:49;4.73;;;1.10;;
16393;SDS011;8306;51.128;4.476;2023-02-26T05:48:15;3.73;;;1.17;;
16393;SDS011;8306;51.128;4.476;2023-02-26T05:50:41;5.00;;;1.10;;
16393;SDS011;8306;51.128;4.476;2023-02-26T05:53:08;2.83;;;1.20;;
16393;SDS011;8306;51.128;4.476;2023-02-26T05:55:34;3.83;;;1.20;;
16393;SDS011;8306;51.128;4.476;2023-02-26T05:58:01;4.73;;;1.20;;
16393;SDS011;8306;51.128;4.476;2023-02-26T06:00:27;4.63;;;1.30;;
16393;SDS011;8306;51.128;4.476;2023-02-26T06:02:54;4.70;;;2.30;;
16393;SDS011;8306;51.128;4.476;2023-02-26T06:05:20;3.53;;;1.73;;
16393;SDS011;8306;51.128;4.476;2023-02-26T06:07:47;2.80;;;1.17;;
16393;SDS011;8306;51.128;4.476;2023-02-26T06:10:13;3.80;;;1.00;;
16393;SDS011;8306;51.128;4.476;2023-02-26T06:12:40;1.97;;;0.83;;
16393;SDS011;8306;51.128;4.476;2023-02-26T06:15:07;4.53;;;0.83;;
16393;SDS011;8306;51.128;4.476;2023-02-26T06:17:33;2.47;;;0.83;;
16393;SDS011;8306;51.128;4.476;2023-02-26T06:20:00;2.73;;;0.87;;
16393;SDS011;8306;51.128;4.476;2023-02-26T06:22:26;3.07;;;0.70;;
16393;SDS011;8306;51.128;4.476;2023-02-26T06:24:53;2.30;;;0.90;;
16393;SDS011;8306;51.128;4.476;2023-02-26T06:27:19;3.73;;;0.77;;
16393;SDS011;8306;51.128;4.476;2023-02-26T06:29:45;2.50;;;0.90;;
16393;SDS011;8306;51.128;4.476;2023-02-26T06:32:12;2.53;;;1.00;;
16393;SDS011;8306;51.128;4.476;2023-02-26T06:34:38;3.67;;;1.00;;
16393;SDS011;8306;51.128;4.476;2023-02-26T06:37:05;1.47;;;0.70;;
16393;SDS011;8306;51.128;4.476;2023-02-26T06:39:32;5.07;;;1.03;;
16393;SDS011;8306;51.128;4.476;2023-02-26T06:41:58;2.67;;;0.90;;
16393;SDS011;8306;51.128;4.476;2023-02-26T06:44:25;1.20;;;0.60;;
16393;SDS011;8306;51.128;4.476;2023-02-26T06:46:51;4.27;;;1.37;;
16393;SDS011;8306;51.128;4.476;2023-02-26T06:49:18;4.20;;;1.00;;
16393;SDS011;8306;51.128;4.476;2023-02-26T06:51:44;3.37;;;0.97;;
16393;SDS011;8306;51.128;4.476;2023-02-26T06:54:11;3.40;;;0.87;;
16393;SDS011;8306;51.128;4.476;2023-02-26T06:56:37;2.27;;;0.70;;
16393;SDS011;8306;51.128;4.476;2023-02-26T06:59:04;1.70;;;0.90;;
16393;SDS011;8306;51.128;4.476;2023-02-26T07:01:30;1.93;;;0.87;;
16393;SDS011;8306;51.128;4.476;2023-02-26T07:03:57;3.57;;;0.93;;
16393;SDS011;8306;51.128;4.476;2023-02-26T07:06:23;2.63;;;1.00;;
16393;SDS011;8306;51.128;4.476;2023-02-26T07:08:50;3.17;;;0.93;;
16393;SDS011;8306;51.128;4.476;2023-02-26T07:11:16;2.63;;;1.07;;
16393;SDS011;8306;51.128;4.476;2023-02-26T07:13:43;4.00;;;0.90;;
16393;SDS011;8306;51.128;4.476;2023-02-26T07:16:09;2.77;;;0.80;;
16393;SDS011;8306;51.128;4.476;2023-02-26T07:18:36;2.67;;;1.07;;
16393;SDS011;8306;51.128;4.476;2023-02-26T07:21:03;2.63;;;1.13;;
16393;SDS011;8306;51.128;4.476;2023-02-26T07:23:29;2.13;;;0.90;;
16393;SDS011;8306;51.128;4.476;2023-02-26T07:25:55;2.00;;;0.80;;
16393;SDS011;8306;51.128;4.476;2023-02-26T07:28:22;2.53;;;1.10;;
16393;SDS011;8306;51.128;4.476;2023-02-26T07:30:48;2.47;;;1.00;;
16393;SDS011;8306;51.128;4.476;2023-02-26T07:33:14;3.27;;;1.33;;
16393;SDS011;8306;51.128;4.476;2023-02-26T07:35:41;3.73;;;1.93;;
16393;SDS011;8306;51.128;4.476;2023-02-26T07:38:07;4.23;;;1.00;;
16393;SDS011;8306;51.128;4.476;2023-02-26T07:40:34;2.70;;;1.07;;
16393;SDS011;8306;51.128;4.476;2023-02-26T07:43:00;1.83;;;0.90;;
16393;SDS011;8306;51.128;4.476;2023-02-26T07:45:27;2.20;;;0.90;;
16393;SDS011;8306;51.128;4.476;2023-02-26T07:47:53;3.27;;;1.30;;
16393;SDS011;8306;51.128;4.476;2023-02-26T07:50:20;2.40;;;1.13;;
16393;SDS011;8306;51.128;4.476;2023-02-26T07:52:46;2.17;;;1.00;;
16393;SDS011;8306;51.128;4.476;2023-02-26T07:55:13;1.53;;;0.87;;
16393;SDS011;8306;51.128;4.476;2023-02-26T07:57:39;1.53;;;0.70;;
16393;SDS011;8306;51.128;4.476;2023-02-26T08:00:06;2.37;;;0.80;;
16393;SDS011;8306;51.128;4.476;2023-02-26T08:02:32;2.57;;;0.70;;
16393;SDS011;8306;51.128;4.476;2023-02-26T08:04:59;2.83;;;1.10;;
16393;SDS011;8306;51.128;4.476;2023-02-26T08:07:25;2.97;;;0.70;;
16393;SDS011;8306;51.128;4.476;2023-02-26T08:09:52;2.20;;;0.80;;
16393;SDS011;8306;51.128;4.476;2023-02-26T08:12:18;3.83;;;1.10;;
16393;SDS011;8306;51.128;4.476;2023-02-26T08:14:44;3.27;;;1.03;;
16393;SDS011;8306;51.128;4.476;2023-02-26T08:17:11;1.70;;;0.57;;
16393;SDS011;8306;51.128;4.476;2023-02-26T08:19:37;3.97;;;1.07;;
16393;SDS011;8306;51.128;4.476;2023-02-26T08:22:04;1.73;;;0.60;;
16393;SDS011;8306;51.128;4.476;2023-02-26T08:24:30;1.70;;;0.70;;
16393;SDS011;8306;51.128;4.476;2023-02-26T08:26:57;3.10;;;1.40;;
16393;SDS011;8306;51.128;4.476;2023-02-26T08:29:23;3.17;;;2.03;;
16393;SDS011;8306;51.128;4.476;2023-02-26T08:31:50;5.70;;;1.33;;
16393;SDS011;8306;51.128;4.476;2023-02-26T08:34:17;2.03;;;0.70;;
16393;SDS011;8306;51.128;4.476;2023-02-26T08:36:43;4.50;;;0.73;;
16393;SDS011;8306;51.128;4.476;2023-02-26T08:39:09;2.40;;;1.00;;
16393;SDS011;8306;51.128;4.476;2023-02-26T08:41:36;1.40;;;0.63;;
16393;SDS011;8306;51.128;4.476;2023-02-26T08:44:02;3.87;;;0.90;;
16393;SDS011;8306;51.128;4.476;2023-02-26T08:46:29;1.83;;;0.70;;
16393;SDS011;8306;51.128;4.476;2023-02-26T08:48:55;2.83;;;0.90;;
16393;SDS011;8306;51.128;4.476;2023-02-26T08:51:22;1.57;;;0.73;;
16393;SDS011;8306;51.128;4.476;2023-02-26T08:53:48;3.20;;;0.70;;
16393;SDS011;8306;51.128;4.476;2023-02-26T08:56:15;2.10;;;0.50;;
16393;SDS011;8306;51.128;4.476;2023-02-26T08:58:41;2.57;;;0.87;;
16393;SDS011;8306;51.128;4.476;2023-02-26T09:01:08;2.00;;;1.03;;
16393;SDS011;8306;51.128;4.476;2023-02-26T09:03:34;2.60;;;1.13;;
16393;SDS011;8306;51.128;4.476;2023-02-26T09:06:01;2.67;;;0.80;;
16393;SDS011;8306;51.128;4.476;2023-02-26T09:08:27;2.83;;;0.87;;
16393;SDS011;8306;51.128;4.476;2023-02-26T09:10:53;1.00;;;0.53;;
16393;SDS011;8306;51.128;4.476;2023-02-26T09:13:20;3.00;;;0.77;;
16393;SDS011;8306;51.128;4.476;2023-02-26T09:15:47;1.63;;;0.50;;
16393;SDS011;8306;51.128;4.476;2023-02-26T09:18:13;3.00;;;0.67;;
16393;SDS011;8306;51.128;4.476;2023-02-26T09:20:43;1.07;;;0.70;;
16393;SDS011;8306;51.128;4.476;2023-02-26T09:23:09;2.13;;;0.93;;
16393;SDS011;8306;51.128;4.476;2023-02-26T09:25:35;2.00;;;0.90;;
16393;SDS011;8306;51.128;4.476;2023-02-26T09:28:02;1.40;;;0.60;;
16393;SDS011;8306;51.128;4.476;2023-02-26T09:30:28;5.67;;;0.80;;
16393;SDS011;8306;51.128;4.476;2023-02-26T09:32:55;3.17;;;0.60;;
16393;SDS011;8306;51.128;4.476;2023-02-26T09:35:21;1.77;;;0.77;;
16393;SDS011;8306;51.128;4.476;2023-02-26T09:37:47;1.30;;;0.60;;
16393;SDS011;8306;51.128;4.476;2023-02-26T09:40:19;5.60;;;1.00;;
16393;SDS011;8306;51.128;4.476;2023-02-26T09:45:29;2.00;;;0.70;;
16393;SDS011;8306;51.128;4.476;2023-02-26T09:47:54;3.00;;;0.63;;
16393;SDS011;8306;51.128;4.476;2023-02-26T09:50:23;3.27;;;0.60;;
16393;SDS011;8306;51.128;4.476;2023-02-26T09:55:25;1.70;;;0.50;;
16393;SDS011;8306;51.128;4.476;2023-02-26T09:57:54;1.27;;;0.50;;
16393;SDS011;8306;51.128;4.476;2023-02-26T10:00:22;1.03;;;0.53;;
16393;SDS011;8306;51.128;4.476;2023-02-26T10:02:52;1.40;;;0.50;;
16393;SDS011;8306;51.128;4.476;2023-02-26T10:05:18;1.33;;;0.60;;
16393;SDS011;8306;51.128;4.476;2023-02-26T10:13:07;0.87;;;0.40;;
16393;SDS011;8306;51.128;4.476;2023-02-26T10:15:36;2.03;;;0.70;;
16393;SDS011;8306;51.128;4.476;2023-02-26T10:23:17;1.30;;;0.50;;
16393;SDS011;8306;51.128;4.476;2023-02-26T10:25:41;2.60;;;0.50;;
16393;SDS011;8306;51.128;4.476;2023-02-26T10:30:43;2.37;;;0.40;;
16393;SDS011;8306;51.128;4.476;2023-02-26T10:35:55;1.10;;;0.40;;
16393;SDS011;8306;51.128;4.476;2023-02-26T10:38:11;1.33;;;0.50;;
16393;SDS011;8306;51.128;4.476;2023-02-26T10:40:44;1.23;;;0.50;;
16393;SDS011;8306;51.128;4.476;2023-02-26T10:48:48;1.60;;;0.40;;
16393;SDS011;8306;51.128;4.476;2023-02-26T10:51:12;0.83;;;0.40;;
16393;SDS011;8306;51.128;4.476;2023-02-26T10:53:44;0.20;;;0.20;;
16393;SDS011;8306;51.128;4.476;2023-02-26T10:56:24;0.90;;;0.40;;
16393;SDS011;8306;51.128;4.476;2023-02-26T10:58:48;1.47;;;0.80;;
16393;SDS011;8306;51.128;4.476;2023-02-26T11:01:18;1.17;;;0.50;;
16393;SDS011;8306;51.128;4.476;2023-02-26T11:03:48;1.83;;;0.60;;
16393;SDS011;8306;51.128;4.476;2023-02-26T11:06:19;1.60;;;0.37;;
16393;SDS011;8306;51.128;4.476;2023-02-26T11:08:54;0.60;;;0.40;;
16393;SDS011;8306;51.128;4.476;2023-02-26T11:11:35;1.97;;;0.57;;
16393;SDS011;8306;51.128;4.476;2023-02-26T11:14:00;1.00;;;0.60;;
16393;SDS011;8306;51.128;4.476;2023-02-26T11:16:26;1.00;;;0.53;;
16393;SDS011;8306;51.128;4.476;2023-02-26T11:18:53;0.93;;;0.60;;
16393;SDS011;8306;51.128;4.476;2023-02-26T11:21:27;1.60;;;0.43;;
16393;SDS011;8306;51.128;4.476;2023-02-26T11:23:54;2.03;;;0.60;;
16393;SDS011;8306;51.128;4.476;2023-02-26T11:26:18;1.03;;;0.73;;
16393;SDS011;8306;51.128;4.476;2023-02-26T11:28:46;1.37;;;0.37;;
16393;SDS011;8306;51.128;4.476;2023-02-26T11:31:14;1.03;;;0.40;;
16393;SDS011;8306;51.128;4.476;2023-02-26T11:33:44;2.73;;;0.70;;
16393;SDS011;8306;51.128;4.476;2023-02-26T11:36:16;1.63;;;0.70;;
16393;SDS011;8306;51.128;4.476;2023-02-26T11:38:39;2.13;;;0.60;;
16393;SDS011;8306;51.128;4.476;2023-02-26T11:41:05;3.37;;;0.70;;
16393;SDS011;8306;51.128;4.476;2023-02-26T11:43:41;1.57;;;0.70;;
16393;SDS011;8306;51.128;4.476;2023-02-26T11:46:07;2.53;;;0.50;;
16393;SDS011;8306;51.128;4.476;2023-02-26T11:48:45;1.73;;;0.80;;
16393;SDS011;8306;51.128;4.476;2023-02-26T11:51:02;1.17;;;0.40;;
16393;SDS011;8306;51.128;4.476;2023-02-26T11:54:18;1.10;;;0.43;;
16393;SDS011;8306;51.128;4.476;2023-02-26T11:55:59;1.80;;;0.73;;
16393;SDS011;8306;51.128;4.476;2023-02-26T11:58:25;0.83;;;0.60;;
16393;SDS011;8306;51.128;4.476;2023-02-26T12:00:51;1.80;;;0.60;;
16393;SDS011;8306;51.128;4.476;2023-02-26T12:03:21;3.03;;;0.90;;
16393;SDS011;8306;51.128;4.476;2023-02-26T12:05:47;2.43;;;0.80;;
16393;SDS011;8306;51.128;4.476;2023-02-26T12:08:20;2.80;;;0.60;;
16393;SDS011;8306;51.128;4.476;2023-02-26T12:10:42;1.33;;;0.60;;
16393;SDS011;8306;51.128;4.476;2023-02-26T12:13:08;0.97;;;0.47;;
16393;SDS011;8306;51.128;4.476;2023-02-26T12:15:54;10.97;;;8.90;;
16393;SDS011;8306;51.128;4.476;2023-02-26T12:18:24;8.37;;;7.57;;
16393;SDS011;8306;51.128;4.476;2023-02-26T12:20:51;1.70;;;1.33;;
16393;SDS011;8306;51.128;4.476;2023-02-26T12:26:21;5.13;;;4.57;;
16393;SDS011;8306;51.128;4.476;2023-02-26T12:29:03;3.10;;;2.53;;
16393;SDS011;8306;51.128;4.476;2023-02-26T12:42:59;2.20;;;1.33;;
16393;SDS011;8306;51.128;4.476;2023-02-26T12:45:41;0.97;;;0.50;;
16393;SDS011;8306;51.128;4.476;2023-02-26T12:50:52;2.13;;;0.90;;
16393;SDS011;8306;51.128;4.476;2023-02-26T12:53:27;1.80;;;0.70;;
16393;SDS011;8306;51.128;4.476;2023-02-26T13:12:07;1.63;;;0.80;;
16393;SDS011;8306;51.128;4.476;2023-02-26T13:17:22;1.03;;;0.50;;
16393;SDS011;8306;51.128;4.476;2023-02-26T13:19:52;1.23;;;1.13;;
16393;SDS011;8306;51.128;4.476;2023-02-26T13:22:26;0.77;;;0.50;;
16393;SDS011;8306;51.128;4.476;2023-02-26T13:25:03;3.47;;;1.87;;
16393;SDS011;8306;51.128;4.476;2023-02-26T13:27:34;1.47;;;0.67;;
16393;SDS011;8306;51.128;4.476;2023-02-26T13:30:03;2.57;;;0.60;;
16393;SDS011;8306;51.128;4.476;2023-02-26T13:32:29;1.30;;;0.70;;
16393;SDS011;8306;51.128;4.476;2023-02-26T13:34:59;0.80;;;0.70;;
16393;SDS011;8306;51.128;4.476;2023-02-26T13:37:29;1.10;;;0.70;;
16393;SDS011;8306;51.128;4.476;2023-02-26T13:40:05;1.80;;;0.70;;
16393;SDS011;8306;51.128;4.476;2023-02-26T13:49:01;1.43;;;0.47;;
16393;SDS011;8306;51.128;4.476;2023-02-26T13:51:12;1.30;;;0.73;;
16393;SDS011;8306;51.128;4.476;2023-02-26T13:53:45;0.73;;;0.67;;
16393;SDS011;8306;51.128;4.476;2023-02-26T13:56:12;1.33;;;0.83;;
16393;SDS011;8306;51.128;4.476;2023-02-26T13:58:36;0.83;;;0.60;;
16393;SDS011;8306;51.128;4.476;2023-02-26T14:01:04;1.60;;;0.53;;
16393;SDS011;8306;51.128;4.476;2023-02-26T14:03:44;0.77;;;0.63;;
16393;SDS011;8306;51.128;4.476;2023-02-26T14:06:24;0.87;;;0.60;;
16393;SDS011;8306;51.128;4.476;2023-02-26T14:08:55;1.50;;;0.60;;
16393;SDS011;8306;51.128;4.476;2023-02-26T14:11:26;2.63;;;0.70;;
16393;SDS011;8306;51.128;4.476;2023-02-26T14:14:14;2.20;;;0.60;;
16393;SDS011;8306;51.128;4.476;2023-02-26T14:16:39;1.80;;;1.27;;
16393;SDS011;8306;51.128;4.476;2023-02-26T14:19:18;1.30;;;0.60;;
16393;SDS011;8306;51.128;4.476;2023-02-26T14:23:59;0.70;;;0.60;;
16393;SDS011;8306;51.128;4.476;2023-02-26T14:26:43;2.27;;;0.50;;
16393;SDS011;8306;51.128;4.476;2023-02-26T14:34:20;2.53;;;0.67;;
16393;SDS011;8306;51.128;4.476;2023-02-26T14:36:50;1.83;;;0.80;;
16393;SDS011;8306;51.128;4.476;2023-02-26T14:40:02;0.90;;;0.50;;
16393;SDS011;8306;51.128;4.476;2023-02-26T14:41:54;1.37;;;0.40;;
16393;SDS011;8306;51.128;4.476;2023-02-26T14:44:21;0.87;;;0.50;;
16393;SDS011;8306;51.128;4.476;2023-02-26T14:46:48;0.90;;;0.50;;
16393;SDS011;8306;51.128;4.476;2023-02-26T14:49:24;1.40;;;0.73;;
16393;SDS011;8306;51.128;4.476;2023-02-26T14:55:00;1.50;;;0.80;;
16393;SDS011;8306;51.128;4.476;2023-02-26T15:02:49;1.07;;;0.73;;
16393;SDS011;8306;51.128;4.476;2023-02-26T15:10:56;1.57;;;0.83;;
16393;SDS011;8306;51.128;4.476;2023-02-26T15:13:41;1.50;;;0.70;;
16393;SDS011;8306;51.128;4.476;2023-02-26T15:16:40;1.23;;;0.60;;
16393;SDS011;8306;51.128;4.476;2023-02-26T15:22:19;0.80;;;0.60;;
16393;SDS011;8306;51.128;4.476;2023-02-26T15:24:41;1.70;;;0.67;;
16393;SDS011;8306;51.128;4.476;2023-02-26T15:27:09;2.13;;;0.60;;
16393;SDS011;8306;51.128;4.476;2023-02-26T15:29:35;1.80;;;0.63;;
16393;SDS011;8306;51.128;4.476;2023-02-26T15:34:44;1.17;;;0.87;;
16393;SDS011;8306;51.128;4.476;2023-02-26T15:37:17;0.93;;;0.70;;
16393;SDS011;8306;51.128;4.476;2023-02-26T15:39:37;1.73;;;0.60;;
16393;SDS011;8306;51.128;4.476;2023-02-26T15:42:03;1.63;;;0.80;;
16393;SDS011;8306;51.128;4.476;2023-02-26T15:44:30;2.50;;;0.80;;
16393;SDS011;8306;51.128;4.476;2023-02-26T15:46:58;1.63;;;0.70;;
16393;SDS011;8306;51.128;4.476;2023-02-26T15:49:27;1.00;;;0.60;;
16393;SDS011;8306;51.128;4.476;2023-02-26T15:51:55;0.60;;;0.50;;
16393;SDS011;8306;51.128;4.476;2023-02-26T15:54:23;2.17;;;0.67;;
16393;SDS011;8306;51.128;4.476;2023-02-26T15:56:48;1.33;;;0.60;;
16393;SDS011;8306;51.128;4.476;2023-02-26T15:59:18;1.73;;;0.60;;
16393;SDS011;8306;51.128;4.476;2023-02-26T16:01:44;0.70;;;0.50;;
16393;SDS011;8306;51.128;4.476;2023-02-26T16:04:12;0.83;;;0.47;;
16393;SDS011;8306;51.128;4.476;2023-02-26T16:06:45;1.73;;;0.50;;
16393;SDS011;8306;51.128;4.476;2023-02-26T16:09:08;0.80;;;0.60;;
16393;SDS011;8306;51.128;4.476;2023-02-26T16:11:35;3.23;;;1.00;;
16393;SDS011;8306;51.128;4.476;2023-02-26T16:14:00;2.17;;;1.57;;
16393;SDS011;8306;51.128;4.476;2023-02-26T16:16:27;1.60;;;0.97;;
16393;SDS011;8306;51.128;4.476;2023-02-26T16:18:53;1.07;;;0.80;;
16393;SDS011;8306;51.128;4.476;2023-02-26T16:21:26;1.30;;;1.07;;
16393;SDS011;8306;51.128;4.476;2023-02-26T16:23:52;0.80;;;0.60;;
16393;SDS011;8306;51.128;4.476;2023-02-26T16:26:23;1.47;;;0.80;;
16393;SDS011;8306;51.128;4.476;2023-02-26T16:28:48;1.60;;;0.70;;
16393;SDS011;8306;51.128;4.476;2023-02-26T16:31:15;1.40;;;0.80;;
16393;SDS011;8306;51.128;4.476;2023-02-26T16:33:49;1.73;;;0.67;;
16393;SDS011;8306;51.128;4.476;2023-02-26T16:36:22;0.73;;;0.50;;
16393;SDS011;8306;51.128;4.476;2023-02-26T16:38:59;1.60;;;0.80;;
16393;SDS011;8306;51.128;4.476;2023-02-26T16:41:24;0.97;;;0.70;;
16393;SDS011;8306;51.128;4.476;2023-02-26T16:43:51;1.57;;;1.00;;
16393;SDS011;8306;51.128;4.476;2023-02-26T16:46:20;1.90;;;0.90;;
16393;SDS011;8306;51.128;4.476;2023-02-26T16:49:05;1.10;;;0.97;;
16393;SDS011;8306;51.128;4.476;2023-02-26T16:51:31;1.57;;;0.80;;
16393;SDS011;8306;51.128;4.476;2023-02-26T16:53:58;2.57;;;1.63;;
16393;SDS011;8306;51.128;4.476;2023-02-26T16:56:25;2.83;;;1.50;;
16393;SDS011;8306;51.128;4.476;2023-02-26T16:59:05;4.00;;;2.07;;
16393;SDS011;8306;51.128;4.476;2023-02-26T17:01:42;3.10;;;1.87;;
16393;SDS011;8306;51.128;4.476;2023-02-26T17:04:02;3.80;;;1.77;;
16393;SDS011;8306;51.128;4.476;2023-02-26T17:06:27;2.23;;;1.57;;
16393;SDS011;8306;51.128;4.476;2023-02-26T17:08:55;3.63;;;2.03;;
16393;SDS011;8306;51.128;4.476;2023-02-26T17:11:29;2.10;;;1.80;;
16393;SDS011;8306;51.128;4.476;2023-02-26T17:16:51;1.83;;;0.93;;
16393;SDS011;8306;51.128;4.476;2023-02-26T17:19:18;1.23;;;0.93;;
16393;SDS011;8306;51.128;4.476;2023-02-26T17:21:48;1.40;;;0.90;;
16393;SDS011;8306;51.128;4.476;2023-02-26T17:24:15;2.53;;;1.70;;
16393;SDS011;8306;51.128;4.476;2023-02-26T17:26:41;2.10;;;1.87;;
16393;SDS011;8306;51.128;4.476;2023-02-26T17:29:09;1.20;;;0.87;;
16393;SDS011;8306;51.128;4.476;2023-02-26T17:31:33;2.17;;;1.37;;